sim
Sign-in with your pilot id or email,
or register
Callsign
Passwort

Schedule Details

Flight Number: OEO4633
Departure: Liverpool John Lennon Airport (EGGP) at 07:05
Arrival: Munich Airport (EDDM) at 09:05

Weather Information
Getting current METAR information for EGGP 291720Z 09004KT 9999 BKN042 14/10 Q1014
Getting current METAR information for EDDM 291720Z 26006KT 9999 SCT017 BKN030 11/09 Q1019 NOSIG

Schedule Frequency

Route Map